sensor_id;sensor_type;location;lat;lon;timestamp;pressure;altitude;pressure_sealevel;temperature;humidity
79465;BME280;68932;47.410;8.232;2023-05-07T00:01:00;96643.15;;;14.88;69.16
79465;BME280;68932;47.410;8.232;2023-05-07T00:03:28;96643.38;;;14.87;69.03
79465;BME280;68932;47.410;8.232;2023-05-07T00:05:57;96645.26;;;14.84;69.07
79465;BME280;68932;47.410;8.232;2023-05-07T00:08:25;96649.30;;;14.81;69.06
79465;BME280;68932;47.410;8.232;2023-05-07T00:10:53;96650.83;;;14.76;69.21
79465;BME280;68932;47.410;8.232;2023-05-07T00:13:21;96654.52;;;14.73;69.22
79465;BME280;68932;47.410;8.232;2023-05-07T00:15:50;96657.09;;;14.72;69.19
79465;BME280;68932;47.410;8.232;2023-05-07T00:18:18;96657.99;;;14.69;69.15
79465;BME280;68932;47.410;8.232;2023-05-07T00:20:46;96656.11;;;14.65;69.25
79465;BME280;68932;47.410;8.232;2023-05-07T00:23:15;96658.80;;;14.60;69.31
79465;BME280;68932;47.410;8.232;2023-05-07T00:25:43;96659.31;;;14.56;69.54
79465;BME280;68932;47.410;8.232;2023-05-07T00:28:11;96656.66;;;14.54;69.55
79465;BME280;68932;47.410;8.232;2023-05-07T00:30:40;96657.29;;;14.51;69.66
79465;BME280;68932;47.410;8.232;2023-05-07T00:33:08;96649.38;;;14.47;69.68
79465;BME280;68932;47.410;8.232;2023-05-07T00:35:37;96648.44;;;14.45;69.77
79465;BME280;68932;47.410;8.232;2023-05-07T00:38:05;96643.14;;;14.43;69.79
79465;BME280;68932;47.410;8.232;2023-05-07T00:40:33;96637.42;;;14.42;69.81
79465;BME280;68932;47.410;8.232;2023-05-07T00:43:01;96637.69;;;14.38;69.94
79465;BME280;68932;47.410;8.232;2023-05-07T00:45:30;96638.02;;;14.37;70.04
79465;BME280;68932;47.410;8.232;2023-05-07T00:47:59;96645.39;;;14.35;70.16
79465;BME280;68932;47.410;8.232;2023-05-07T00:50:28;96647.61;;;14.34;70.20
79465;BME280;68932;47.410;8.232;2023-05-07T00:52:57;96646.30;;;14.31;70.10
79465;BME280;68932;47.410;8.232;2023-05-07T00:55:27;96647.30;;;14.29;70.12
79465;BME280;68932;47.410;8.232;2023-05-07T00:57:55;96645.23;;;14.29;70.05
79465;BME280;68932;47.410;8.232;2023-05-07T01:00:23;96640.88;;;14.27;69.99
79465;BME280;68932;47.410;8.232;2023-05-07T01:02:52;96640.61;;;14.23;70.10
79465;BME280;68932;47.410;8.232;2023-05-07T01:05:22;96642.42;;;14.21;70.19
79465;BME280;68932;47.410;8.232;2023-05-07T01:07:52;96641.58;;;14.20;70.39
79465;BME280;68932;47.410;8.232;2023-05-07T01:10:21;96638.17;;;14.19;70.57
79465;BME280;68932;47.410;8.232;2023-05-07T01:12:51;96638.05;;;14.18;70.63
79465;BME280;68932;47.410;8.232;2023-05-07T01:15:20;96637.21;;;14.20;70.72
79465;BME280;68932;47.410;8.232;2023-05-07T01:17:48;96631.34;;;14.18;70.70
79465;BME280;68932;47.410;8.232;2023-05-07T01:20:17;96637.04;;;14.17;70.73
79465;BME280;68932;47.410;8.232;2023-05-07T01:22:46;96634.69;;;14.16;70.88
79465;BME280;68932;47.410;8.232;2023-05-07T01:25:14;96636.64;;;14.16;70.79
79465;BME280;68932;47.410;8.232;2023-05-07T01:27:43;96636.41;;;14.15;70.92
79465;BME280;68932;47.410;8.232;2023-05-07T01:30:12;96628.63;;;14.11;70.92
79465;BME280;68932;47.410;8.232;2023-05-07T01:32:44;96622.52;;;14.06;70.97
79465;BME280;68932;47.410;8.232;2023-05-07T01:35:19;96619.45;;;14.03;70.96
79465;BME280;68932;47.410;8.232;2023-05-07T01:37:48;96620.36;;;14.01;71.01
79465;BME280;68932;47.410;8.232;2023-05-07T01:40:17;96623.09;;;13.99;70.94
79465;BME280;68932;47.410;8.232;2023-05-07T01:42:47;96625.41;;;13.99;71.17
79465;BME280;68932;47.410;8.232;2023-05-07T01:45:15;96625.97;;;13.97;71.54
79465;BME280;68932;47.410;8.232;2023-05-07T01:47:44;96628.65;;;13.96;71.68
79465;BME280;68932;47.410;8.232;2023-05-07T01:50:13;96633.61;;;13.95;71.56
79465;BME280;68932;47.410;8.232;2023-05-07T01:52:44;96632.55;;;13.95;71.51
79465;BME280;68932;47.410;8.232;2023-05-07T01:55:12;96631.66;;;13.94;71.37
79465;BME280;68932;47.410;8.232;2023-05-07T01:57:40;96626.99;;;13.91;71.35
79465;BME280;68932;47.410;8.232;2023-05-07T02:00:11;96625.79;;;13.86;71.52
79465;BME280;68932;47.410;8.232;2023-05-07T02:02:39;96630.19;;;13.82;71.47
79465;BME280;68932;47.410;8.232;2023-05-07T02:05:08;96637.49;;;13.79;71.41
79465;BME280;68932;47.410;8.232;2023-05-07T02:07:36;96638.71;;;13.75;71.40
79465;BME280;68932;47.410;8.232;2023-05-07T02:10:06;96635.99;;;13.72;71.48
79465;BME280;68932;47.410;8.232;2023-05-07T02:12:35;96639.42;;;13.69;71.39
79465;BME280;68932;47.410;8.232;2023-05-07T02:15:04;96636.71;;;13.68;71.73
79465;BME280;68932;47.410;8.232;2023-05-07T02:17:32;96641.01;;;13.69;71.71
79465;BME280;68932;47.410;8.232;2023-05-07T02:20:01;96646.70;;;13.68;71.71
79465;BME280;68932;47.410;8.232;2023-05-07T02:22:29;96648.27;;;13.64;71.62
79465;BME280;68932;47.410;8.232;2023-05-07T02:24:57;96652.74;;;13.61;71.71
79465;BME280;68932;47.410;8.232;2023-05-07T02:27:25;96657.05;;;13.60;71.72
79465;BME280;68932;47.410;8.232;2023-05-07T02:29:54;96655.96;;;13.61;71.77
79465;BME280;68932;47.410;8.232;2023-05-07T02:32:22;96655.69;;;13.62;71.91
79465;BME280;68932;47.410;8.232;2023-05-07T02:34:53;96654.81;;;13.59;71.78
79465;BME280;68932;47.410;8.232;2023-05-07T02:37:21;96658.55;;;13.54;71.70
79465;BME280;68932;47.410;8.232;2023-05-07T02:39:49;96663.32;;;13.50;71.86
79465;BME280;68932;47.410;8.232;2023-05-07T02:42:18;96663.46;;;13.44;71.78
79465;BME280;68932;47.410;8.232;2023-05-07T02:44:46;96661.42;;;13.37;71.85
79465;BME280;68932;47.410;8.232;2023-05-07T02:47:14;96664.44;;;13.32;72.00
79465;BME280;68932;47.410;8.232;2023-05-07T02:49:43;96661.84;;;13.32;72.20
79465;BME280;68932;47.410;8.232;2023-05-07T02:52:11;96662.78;;;13.33;72.55
79465;BME280;68932;47.410;8.232;2023-05-07T02:54:39;96661.02;;;13.33;72.70
79465;BME280;68932;47.410;8.232;2023-05-07T02:57:08;96661.88;;;13.31;72.79
79465;BME280;68932;47.410;8.232;2023-05-07T02:59:36;96661.33;;;13.29;72.84
79465;BME280;68932;47.410;8.232;2023-05-07T03:02:04;96660.46;;;13.27;72.83
79465;BME280;68932;47.410;8.232;2023-05-07T03:04:32;96657.80;;;13.25;72.92
79465;BME280;68932;47.410;8.232;2023-05-07T03:07:01;96657.81;;;13.25;72.88
79465;BME280;68932;47.410;8.232;2023-05-07T03:09:29;96650.66;;;13.24;72.80
79465;BME280;68932;47.410;8.232;2023-05-07T03:11:57;96651.82;;;13.23;72.85
79465;BME280;68932;47.410;8.232;2023-05-07T03:14:26;96652.99;;;13.21;72.80
79465;BME280;68932;47.410;8.232;2023-05-07T03:16:54;96657.02;;;13.19;73.00
79465;BME280;68932;47.410;8.232;2023-05-07T03:19:22;96650.48;;;13.19;73.15
79465;BME280;68932;47.410;8.232;2023-05-07T03:21:51;96650.60;;;13.20;73.24
79465;BME280;68932;47.410;8.232;2023-05-07T03:24:19;96646.71;;;13.21;73.28
79465;BME280;68932;47.410;8.232;2023-05-07T03:26:47;96647.70;;;13.19;73.32
79465;BME280;68932;47.410;8.232;2023-05-07T03:29:16;96649.24;;;13.17;73.40
79465;BME280;68932;47.410;8.232;2023-05-07T03:31:44;96650.78;;;13.18;73.47
79465;BME280;68932;47.410;8.232;2023-05-07T03:34:13;96652.81;;;13.19;73.48
79465;BME280;68932;47.410;8.232;2023-05-07T03:36:41;96658.02;;;13.20;73.36
79465;BME280;68932;47.410;8.232;2023-05-07T03:39:09;96662.09;;;13.22;73.41
79465;BME280;68932;47.410;8.232;2023-05-07T03:41:37;96661.52;;;13.23;73.46
79465;BME280;68932;47.410;8.232;2023-05-07T03:44:06;96666.10;;;13.22;73.43
79465;BME280;68932;47.410;8.232;2023-05-07T03:46:34;96667.66;;;13.20;73.26
79465;BME280;68932;47.410;8.232;2023-05-07T03:49:03;96670.70;;;13.17;73.28
79465;BME280;68932;47.410;8.232;2023-05-07T03:51:31;96667.15;;;13.13;73.27
79465;BME280;68932;47.410;8.232;2023-05-07T03:53:59;96670.44;;;13.08;73.31
79465;BME280;68932;47.410;8.232;2023-05-07T03:56:28;96669.70;;;13.02;73.35
79465;BME280;68932;47.410;8.232;2023-05-07T03:58:56;96674.60;;;12.98;73.48
79465;BME280;68932;47.410;8.232;2023-05-07T04:01:24;96677.63;;;12.97;73.63
79465;BME280;68932;47.410;8.232;2023-05-07T04:03:52;96682.27;;;12.96;74.07
79465;BME280;68932;47.410;8.232;2023-05-07T04:06:21;96682.81;;;12.94;74.23
79465;BME280;68932;47.410;8.232;2023-05-07T04:08:49;96683.34;;;12.94;74.18
79465;BME280;68932;47.410;8.232;2023-05-07T04:11:17;96683.02;;;12.94;74.08
79465;BME280;68932;47.410;8.232;2023-05-07T04:13:46;96681.31;;;12.93;74.16
79465;BME280;68932;47.410;8.232;2023-05-07T04:16:14;96683.44;;;12.91;74.13
79465;BME280;68932;47.410;8.232;2023-05-07T04:18:42;96679.38;;;12.91;74.24
79465;BME280;68932;47.410;8.232;2023-05-07T04:21:17;96678.94;;;12.92;74.20
79465;BME280;68932;47.410;8.232;2023-05-07T04:23:45;96684.51;;;12.90;74.11
79465;BME280;68932;47.410;8.232;2023-05-07T04:26:14;96686.08;;;12.89;74.19
79465;BME280;68932;47.410;8.232;2023-05-07T04:28:43;96690.77;;;12.91;74.24
79465;BME280;68932;47.410;8.232;2023-05-07T04:31:11;96689.67;;;12.94;74.29
79465;BME280;68932;47.410;8.232;2023-05-07T04:33:39;96691.67;;;12.95;74.28
79465;BME280;68932;47.410;8.232;2023-05-07T04:36:08;96689.95;;;12.97;74.27
79465;BME280;68932;47.410;8.232;2023-05-07T04:38:37;96696.04;;;13.02;74.45
79465;BME280;68932;47.410;8.232;2023-05-07T04:41:06;96695.08;;;13.10;74.79
79465;BME280;68932;47.410;8.232;2023-05-07T04:43:34;96695.30;;;13.18;74.86
79465;BME280;68932;47.410;8.232;2023-05-07T04:46:03;96697.41;;;13.25;74.89
79465;BME280;68932;47.410;8.232;2023-05-07T04:48:31;96700.60;;;13.31;74.98
79465;BME280;68932;47.410;8.232;2023-05-07T04:50:59;96705.20;;;13.37;75.11
79465;BME280;68932;47.410;8.232;2023-05-07T04:53:27;96708.75;;;13.44;75.16
79465;BME280;68932;47.410;8.232;2023-05-07T04:55:59;96709.90;;;13.49;74.85
79465;BME280;68932;47.410;8.232;2023-05-07T04:58:27;96714.59;;;13.52;74.74
79465;BME280;68932;47.410;8.232;2023-05-07T05:00:56;96718.31;;;13.54;74.63
79465;BME280;68932;47.410;8.232;2023-05-07T05:03:24;96718.98;;;13.58;74.60
79465;BME280;68932;47.410;8.232;2023-05-07T05:05:52;96726.13;;;13.64;74.67
79465;BME280;68932;47.410;8.232;2023-05-07T05:08:20;96731.17;;;13.67;74.89
79465;BME280;68932;47.410;8.232;2023-05-07T05:10:49;96732.27;;;13.71;75.05
79465;BME280;68932;47.410;8.232;2023-05-07T05:13:17;96731.12;;;13.74;75.03
79465;BME280;68932;47.410;8.232;2023-05-07T05:15:45;96733.34;;;13.74;74.96
79465;BME280;68932;47.410;8.232;2023-05-07T05:18:14;96731.00;;;13.75;75.04
79465;BME280;68932;47.410;8.232;2023-05-07T05:20:42;96740.64;;;13.76;75.06
79465;BME280;68932;47.410;8.232;2023-05-07T05:23:10;96750.32;;;13.78;75.13
79465;BME280;68932;47.410;8.232;2023-05-07T05:25:38;96757.08;;;13.81;75.30
79465;BME280;68932;47.410;8.232;2023-05-07T05:28:07;96762.45;;;13.83;75.21
79465;BME280;68932;47.410;8.232;2023-05-07T05:30:35;96763.17;;;13.82;75.23
79465;BME280;68932;47.410;8.232;2023-05-07T05:33:03;96764.20;;;13.81;75.13
79465;BME280;68932;47.410;8.232;2023-05-07T05:35:31;96761.23;;;13.78;75.01
79465;BME280;68932;47.410;8.232;2023-05-07T05:38:00;96759.48;;;13.76;75.00
79465;BME280;68932;47.410;8.232;2023-05-07T05:40:28;96766.74;;;13.73;74.95
79465;BME280;68932;47.410;8.232;2023-05-07T05:42:56;96774.92;;;13.74;75.04
79465;BME280;68932;47.410;8.232;2023-05-07T05:45:25;96777.07;;;13.76;74.97
79465;BME280;68932;47.410;8.232;2023-05-07T05:47:55;96777.85;;;13.77;74.88
79465;BME280;68932;47.410;8.232;2023-05-07T05:50:23;96784.48;;;13.76;74.87
79465;BME280;68932;47.410;8.232;2023-05-07T05:52:52;96785.23;;;13.71;74.89
79465;BME280;68932;47.410;8.232;2023-05-07T05:55:21;96789.47;;;13.65;74.95
79465;BME280;68932;47.410;8.232;2023-05-07T05:57:49;96791.44;;;13.60;74.96
79465;BME280;68932;47.410;8.232;2023-05-07T06:00:18;96791.30;;;13.59;75.02
79465;BME280;68932;47.410;8.232;2023-05-07T06:02:46;96787.44;;;13.57;75.16
79465;BME280;68932;47.410;8.232;2023-05-07T06:05:15;96787.73;;;13.57;75.16
79465;BME280;68932;47.410;8.232;2023-05-07T06:07:43;96788.99;;;13.62;75.23
79465;BME280;68932;47.410;8.232;2023-05-07T06:10:11;96787.44;;;13.64;75.22
79465;BME280;68932;47.410;8.232;2023-05-07T06:12:40;96786.97;;;13.67;75.31
79465;BME280;68932;47.410;8.232;2023-05-07T06:15:09;96783.83;;;13.71;75.36
79465;BME280;68932;47.410;8.232;2023-05-07T06:17:38;96783.73;;;13.79;75.40
79465;BME280;68932;47.410;8.232;2023-05-07T06:20:08;96783.73;;;13.89;75.34
79465;BME280;68932;47.410;8.232;2023-05-07T06:22:36;96783.41;;;14.00;75.13
79465;BME280;68932;47.410;8.232;2023-05-07T06:25:06;96785.36;;;14.10;75.07
79465;BME280;68932;47.410;8.232;2023-05-07T06:27:35;96785.62;;;14.20;75.02
79465;BME280;68932;47.410;8.232;2023-05-07T06:30:04;96789.31;;;14.30;75.04
79465;BME280;68932;47.410;8.232;2023-05-07T06:32:33;96787.41;;;14.45;74.91
79465;BME280;68932;47.410;8.232;2023-05-07T06:35:01;96779.14;;;14.60;74.61
79465;BME280;68932;47.410;8.232;2023-05-07T06:37:29;96778.88;;;14.73;74.40
79465;BME280;68932;47.410;8.232;2023-05-07T06:39:57;96786.10;;;14.86;74.29
79465;BME280;68932;47.410;8.232;2023-05-07T06:42:26;96783.85;;;14.99;74.02
79465;BME280;68932;47.410;8.232;2023-05-07T06:44:54;96783.27;;;15.10;73.35
79465;BME280;68932;47.410;8.232;2023-05-07T06:47:22;96779.00;;;15.14;73.06
79465;BME280;68932;47.410;8.232;2023-05-07T06:49:50;96776.98;;;15.20;72.86
79465;BME280;68932;47.410;8.232;2023-05-07T06:52:19;96772.41;;;15.29;72.85
79465;BME280;68932;47.410;8.232;2023-05-07T06:54:47;96768.95;;;15.39;72.45
79465;BME280;68932;47.410;8.232;2023-05-07T06:57:15;96766.58;;;15.49;72.23
79465;BME280;68932;47.410;8.232;2023-05-07T06:59:44;96771.66;;;15.60;71.99
79465;BME280;68932;47.410;8.232;2023-05-07T07:02:12;96775.80;;;15.71;71.98
79465;BME280;68932;47.410;8.232;2023-05-07T07:04:40;96778.70;;;15.80;71.81
79465;BME280;68932;47.410;8.232;2023-05-07T07:07:08;96783.55;;;15.85;71.34
79465;BME280;68932;47.410;8.232;2023-05-07T07:09:37;96779.44;;;15.89;71.19
79465;BME280;68932;47.410;8.232;2023-05-07T07:12:06;96780.11;;;15.93;71.01
79465;BME280;68932;47.410;8.232;2023-05-07T07:14:34;96781.08;;;15.99;70.95
79465;BME280;68932;47.410;8.232;2023-05-07T07:17:02;96779.23;;;16.08;70.85
79465;BME280;68932;47.410;8.232;2023-05-07T07:19:31;96778.58;;;16.17;70.65
79465;BME280;68932;47.410;8.232;2023-05-07T07:21:59;96781.52;;;16.27;70.64
79465;BME280;68932;47.410;8.232;2023-05-07T07:24:27;96781.83;;;16.37;70.50
79465;BME280;68932;47.410;8.232;2023-05-07T07:26:55;96778.82;;;16.49;70.37
79465;BME280;68932;47.410;8.232;2023-05-07T07:29:24;96779.55;;;16.62;70.19
79465;BME280;68932;47.410;8.232;2023-05-07T07:31:52;96778.00;;;16.76;70.30
79465;BME280;68932;47.410;8.232;2023-05-07T07:34:20;96776.39;;;16.90;69.90
79465;BME280;68932;47.410;8.232;2023-05-07T07:36:49;96776.10;;;17.04;69.77
79465;BME280;68932;47.410;8.232;2023-05-07T07:39:17;96776.67;;;17.17;69.52
79465;BME280;68932;47.410;8.232;2023-05-07T07:41:45;96778.44;;;17.26;68.93
79465;BME280;68932;47.410;8.232;2023-05-07T07:44:14;96782.33;;;17.34;68.67
79465;BME280;68932;47.410;8.232;2023-05-07T07:46:42;96785.27;;;17.42;68.24
79465;BME280;68932;47.410;8.232;2023-05-07T07:49:10;96782.88;;;17.50;67.95
79465;BME280;68932;47.410;8.232;2023-05-07T07:51:39;96784.02;;;17.54;67.49
79465;BME280;68932;47.410;8.232;2023-05-07T07:54:07;96788.36;;;17.59;67.51
79465;BME280;68932;47.410;8.232;2023-05-07T07:56:36;96793.71;;;17.68;67.62
79465;BME280;68932;47.410;8.232;2023-05-07T07:59:04;96795.84;;;17.75;67.78
79465;BME280;68932;47.410;8.232;2023-05-07T08:01:32;96797.21;;;17.83;67.78
79465;BME280;68932;47.410;8.232;2023-05-07T08:04:02;96801.23;;;17.91;67.57
79465;BME280;68932;47.410;8.232;2023-05-07T08:06:30;96804.08;;;17.99;66.84
79465;BME280;68932;47.410;8.232;2023-05-07T08:08:58;96805.84;;;18.06;66.79
79465;BME280;68932;47.410;8.232;2023-05-07T08:11:26;96808.52;;;18.16;67.58
79465;BME280;68932;47.410;8.232;2023-05-07T08:13:55;96808.30;;;18.29;67.61
79465;BME280;68932;47.410;8.232;2023-05-07T08:16:24;96809.77;;;18.38;66.30
79465;BME280;68932;47.410;8.232;2023-05-07T08:18:52;96810.59;;;18.42;65.89
79465;BME280;68932;47.410;8.232;2023-05-07T08:21:20;96808.58;;;18.44;65.22
79465;BME280;68932;47.410;8.232;2023-05-07T08:23:49;96805.27;;;18.47;65.59
79465;BME280;68932;47.410;8.232;2023-05-07T08:26:17;96802.85;;;18.53;65.64
79465;BME280;68932;47.410;8.232;2023-05-07T08:28:46;96799.95;;;18.56;65.21
79465;BME280;68932;47.410;8.232;2023-05-07T08:31:14;96799.74;;;18.56;65.15
79465;BME280;68932;47.410;8.232;2023-05-07T08:33:42;96792.84;;;18.54;64.72
79465;BME280;68932;47.410;8.232;2023-05-07T08:36:11;96794.34;;;18.55;64.72
79465;BME280;68932;47.410;8.232;2023-05-07T08:38:39;96794.83;;;18.57;64.63
79465;BME280;68932;47.410;8.232;2023-05-07T08:41:08;96792.93;;;18.62;64.51
79465;BME280;68932;47.410;8.232;2023-05-07T08:43:39;96792.90;;;18.72;65.05
79465;BME280;68932;47.410;8.232;2023-05-07T08:46:10;96795.08;;;18.83;64.63
79465;BME280;68932;47.410;8.232;2023-05-07T08:48:39;96792.73;;;18.87;63.83
79465;BME280;68932;47.410;8.232;2023-05-07T08:51:08;96793.27;;;18.89;63.72
79465;BME280;68932;47.410;8.232;2023-05-07T08:53:38;96794.56;;;18.93;63.59
79465;BME280;68932;47.410;8.232;2023-05-07T08:56:09;96790.74;;;19.01;63.58
79465;BME280;68932;47.410;8.232;2023-05-07T08:58:37;96791.54;;;19.07;63.20
79465;BME280;68932;47.410;8.232;2023-05-07T09:01:09;96792.27;;;19.19;63.33
79465;BME280;68932;47.410;8.232;2023-05-07T09:03:39;96790.57;;;19.34;63.40
79465;BME280;68932;47.410;8.232;2023-05-07T09:06:07;96784.25;;;19.45;63.29
79465;BME280;68932;47.410;8.232;2023-05-07T09:08:36;96781.85;;;19.56;63.37
79465;BME280;68932;47.410;8.232;2023-05-07T09:11:05;96779.20;;;19.64;63.39
79465;BME280;68932;47.410;8.232;2023-05-07T09:13:33;96778.17;;;19.72;63.58
79465;BME280;68932;47.410;8.232;2023-05-07T09:16:11;96774.95;;;19.83;63.39
79465;BME280;68932;47.410;8.232;2023-05-07T09:18:43;96772.25;;;19.91;62.96
79465;BME280;68932;47.410;8.232;2023-05-07T09:21:11;96774.92;;;19.96;62.72
79465;BME280;68932;47.410;8.232;2023-05-07T09:23:39;96777.45;;;20.00;62.79
79465;BME280;68932;47.410;8.232;2023-05-07T09:26:08;96774.90;;;20.05;62.44
79465;BME280;68932;47.410;8.232;2023-05-07T09:28:39;96772.59;;;20.10;62.43
79465;BME280;68932;47.410;8.232;2023-05-07T09:31:08;96770.91;;;20.15;62.28
79465;BME280;68932;47.410;8.232;2023-05-07T09:33:37;96769.61;;;20.21;62.16
79465;BME280;68932;47.410;8.232;2023-05-07T09:36:07;96769.04;;;20.26;62.25
79465;BME280;68932;47.410;8.232;2023-05-07T09:38:37;96775.77;;;20.31;62.34
79465;BME280;68932;47.410;8.232;2023-05-07T09:41:06;96772.41;;;20.36;61.89
79465;BME280;68932;47.410;8.232;2023-05-07T09:43:36;96770.91;;;20.40;62.06
79465;BME280;68932;47.410;8.232;2023-05-07T09:46:14;96769.30;;;20.42;61.43
79465;BME280;68932;47.410;8.232;2023-05-07T09:48:43;96774.73;;;20.43;60.85
79465;BME280;68932;47.410;8.232;2023-05-07T09:51:18;96771.91;;;20.43;60.36
79465;BME280;68932;47.410;8.232;2023-05-07T09:53:48;96778.16;;;20.39;60.53
79465;BME280;68932;47.410;8.232;2023-05-07T09:56:19;96773.45;;;20.37;60.91
79465;BME280;68932;47.410;8.232;2023-05-07T09:58:48;96776.73;;;20.38;60.85
79465;BME280;68932;47.410;8.232;2023-05-07T10:01:18;96776.79;;;20.39;60.84
79465;BME280;68932;47.410;8.232;2023-05-07T10:03:47;96775.29;;;20.38;60.19
79465;BME280;68932;47.410;8.232;2023-05-07T10:06:18;96776.79;;;20.32;60.25
79465;BME280;68932;47.410;8.232;2023-05-07T10:08:48;96773.85;;;20.28;60.23
79465;BME280;68932;47.410;8.232;2023-05-07T10:11:17;96769.11;;;20.25;60.55
79465;BME280;68932;47.410;8.232;2023-05-07T10:13:47;96768.32;;;20.23;61.01
79465;BME280;68932;47.410;8.232;2023-05-07T10:16:16;96770.32;;;20.21;62.08
79465;BME280;68932;47.410;8.232;2023-05-07T10:18:45;96766.86;;;20.18;62.19
79465;BME280;68932;47.410;8.232;2023-05-07T10:21:17;96767.43;;;20.11;61.48
79465;BME280;68932;47.410;8.232;2023-05-07T10:23:50;96764.30;;;20.04;61.69
79465;BME280;68932;47.410;8.232;2023-05-07T10:26:21;96767.23;;;19.99;61.43
79465;BME280;68932;47.410;8.232;2023-05-07T10:28:53;96767.80;;;19.95;61.67
79465;BME280;68932;47.410;8.232;2023-05-07T10:31:39;96763.30;;;19.90;61.39
79465;BME280;68932;47.410;8.232;2023-05-07T10:34:16;96759.98;;;19.86;62.13
79465;BME280;68932;47.410;8.232;2023-05-07T10:36:47;96760.48;;;19.88;61.95
79465;BME280;68932;47.410;8.232;2023-05-07T10:39:16;96759.52;;;19.92;62.57
79465;BME280;68932;47.410;8.232;2023-05-07T10:41:45;96756.42;;;20.01;63.25
79465;BME280;68932;47.410;8.232;2023-05-07T10:44:26;96759.16;;;20.14;63.22
79465;BME280;68932;47.410;8.232;2023-05-07T10:47:08;96761.34;;;20.28;61.67
79465;BME280;68932;47.410;8.232;2023-05-07T10:49:38;96759.33;;;20.39;61.32
79465;BME280;68932;47.410;8.232;2023-05-07T10:52:26;96753.58;;;20.49;61.12
79465;BME280;68932;47.410;8.232;2023-05-07T10:55:20;96751.05;;;20.61;60.28
79465;BME280;68932;47.410;8.232;2023-05-07T10:57:48;96748.27;;;20.75;60.63
79465;BME280;68932;47.410;8.232;2023-05-07T11:00:43;96747.06;;;20.87;60.33
79465;BME280;68932;47.410;8.232;2023-05-07T11:03:12;96739.39;;;21.05;60.58
79465;BME280;68932;47.410;8.232;2023-05-07T11:05:41;96736.48;;;21.18;59.81
79465;BME280;68932;47.410;8.232;2023-05-07T11:08:09;96736.51;;;21.32;60.53
79465;BME280;68932;47.410;8.232;2023-05-07T11:10:51;96734.63;;;21.44;59.48
79465;BME280;68932;47.410;8.232;2023-05-07T11:13:43;96732.27;;;21.59;59.59
79465;BME280;68932;47.410;8.232;2023-05-07T11:16:22;96736.52;;;21.71;58.27
79465;BME280;68932;47.410;8.232;2023-05-07T11:18:52;96736.98;;;21.75;56.80
79465;BME280;68932;47.410;8.232;2023-05-07T11:21:35;96731.52;;;21.71;56.45
79465;BME280;68932;47.410;8.232;2023-05-07T11:24:05;96733.27;;;21.73;56.74
79465;BME280;68932;47.410;8.232;2023-05-07T11:26:44;96736.42;;;21.75;56.09
79465;BME280;68932;47.410;8.232;2023-05-07T11:29:17;96735.39;;;21.75;55.90
79465;BME280;68932;47.410;8.232;2023-05-07T11:31:50;96734.06;;;21.74;56.04
79465;BME280;68932;47.410;8.232;2023-05-07T11:34:22;96730.06;;;21.76;55.83
79465;BME280;68932;47.410;8.232;2023-05-07T11:36:51;96727.65;;;21.77;55.91
79465;BME280;68932;47.410;8.232;2023-05-07T11:39:26;96727.89;;;21.83;56.09
79465;BME280;68932;47.410;8.232;2023-05-07T11:41:55;96722.71;;;21.90;55.95
79465;BME280;68932;47.410;8.232;2023-05-07T11:44:24;96718.83;;;21.99;55.74
79465;BME280;68932;47.410;8.232;2023-05-07T11:46:52;96711.92;;;22.09;56.49
79465;BME280;68932;47.410;8.232;2023-05-07T11:49:20;96714.59;;;22.20;56.73
79465;BME280;68932;47.410;8.232;2023-05-07T11:51:52;96714.70;;;22.30;55.99
79465;BME280;68932;47.410;8.232;2023-05-07T11:54:21;96719.82;;;22.37;55.25
79465;BME280;68932;47.410;8.232;2023-05-07T11:56:50;96720.54;;;22.37;54.20
79465;BME280;68932;47.410;8.232;2023-05-07T11:59:21;96723.84;;;22.38;54.34
79465;BME280;68932;47.410;8.232;2023-05-07T12:01:49;96724.88;;;22.33;54.50
79465;BME280;68932;47.410;8.232;2023-05-07T12:04:21;96722.63;;;22.25;54.62
79465;BME280;68932;47.410;8.232;2023-05-07T12:06:53;96724.12;;;22.21;54.92
79465;BME280;68932;47.410;8.232;2023-05-07T12:09:21;96726.63;;;22.21;54.83
79465;BME280;68932;47.410;8.232;2023-05-07T12:11:49;96727.48;;;22.20;54.58
79465;BME280;68932;47.410;8.232;2023-05-07T12:14:19;96731.20;;;22.17;54.05
79465;BME280;68932;47.410;8.232;2023-05-07T12:16:48;96728.80;;;22.18;54.58
79465;BME280;68932;47.410;8.232;2023-05-07T12:19:16;96732.86;;;22.22;54.86
79465;BME280;68932;47.410;8.232;2023-05-07T12:21:44;96740.44;;;22.22;54.85
79465;BME280;68932;47.410;8.232;2023-05-07T12:24:13;96747.38;;;22.10;54.60
79465;BME280;68932;47.410;8.232;2023-05-07T12:26:42;96749.70;;;21.93;54.97
79465;BME280;68932;47.410;8.232;2023-05-07T12:29:11;96755.11;;;21.80;55.05
79465;BME280;68932;47.410;8.232;2023-05-07T12:31:41;96755.41;;;21.77;55.82
79465;BME280;68932;47.410;8.232;2023-05-07T12:34:12;96753.67;;;21.77;55.94
79465;BME280;68932;47.410;8.232;2023-05-07T12:36:41;96751.49;;;21.83;55.46
79465;BME280;68932;47.410;8.232;2023-05-07T12:39:10;96750.64;;;21.93;53.92
79465;BME280;68932;47.410;8.232;2023-05-07T12:41:58;96755.21;;;22.04;53.90
79465;BME280;68932;47.410;8.232;2023-05-07T12:44:30;96758.59;;;22.09;52.29
79465;BME280;68932;47.410;8.232;2023-05-07T12:46:59;96760.42;;;22.04;52.22
79465;BME280;68932;47.410;8.232;2023-05-07T12:49:29;96755.94;;;22.01;52.96
79465;BME280;68932;47.410;8.232;2023-05-07T12:51:57;96756.42;;;21.94;53.83
79465;BME280;68932;47.410;8.232;2023-05-07T12:54:33;96760.69;;;21.90;53.62
79465;BME280;68932;47.410;8.232;2023-05-07T12:57:06;96762.84;;;21.76;53.56
79465;BME280;68932;47.410;8.232;2023-05-07T12:59:37;96758.34;;;21.69;54.32
79465;BME280;68932;47.410;8.232;2023-05-07T13:02:06;96761.77;;;21.58;54.10
79465;BME280;68932;47.410;8.232;2023-05-07T13:04:34;96764.73;;;21.41;54.01
79465;BME280;68932;47.410;8.232;2023-05-07T13:07:03;96759.48;;;21.24;54.58
79465;BME280;68932;47.410;8.232;2023-05-07T13:09:32;96754.13;;;21.23;54.60
79465;BME280;68932;47.410;8.232;2023-05-07T13:12:00;96754.77;;;21.23;54.50